sensor_id;sensor_type;location;lat;lon;timestamp;pressure;altitude;pressure_sealevel;temperature;humidity
59650;BME280;46162;57.568;25.814;2024-03-23T00:54:04;99093.88;;;4.02;100.00
59650;BME280;46162;57.568;25.814;2024-03-23T00:56:30;99104.56;;;4.02;100.00
59650;BME280;46162;57.568;25.814;2024-03-23T00:58:58;99105.41;;;4.03;100.00
59650;BME280;46162;57.568;25.814;2024-03-23T01:01:24;99104.88;;;3.99;100.00
59650;BME280;46162;57.568;25.814;2024-03-23T01:03:52;99096.16;;;3.97;100.00
59650;BME280;46162;57.568;25.814;2024-03-23T01:06:21;99102.50;;;3.96;100.00
59650;BME280;46162;57.568;25.814;2024-03-23T01:08:50;99101.50;;;3.97;100.00
59650;BME280;46162;57.568;25.814;2024-03-23T01:11:17;99102.34;;;3.98;100.00
59650;BME280;46162;57.568;25.814;2024-03-23T01:13:44;99102.13;;;3.91;100.00
59650;BME280;46162;57.568;25.814;2024-03-23T01:16:11;99102.81;;;3.93;100.00
59650;BME280;46162;57.568;25.814;2024-03-23T01:18:38;99101.94;;;3.93;100.00
59650;BME280;46162;57.568;25.814;2024-03-23T01:21:04;99094.94;;;3.92;100.00
59650;BME280;46162;57.568;25.814;2024-03-23T01:23:32;99098.44;;;3.92;100.00
59650;BME280;46162;57.568;25.814;2024-03-23T01:26:00;99089.19;;;3.86;100.00
59650;BME280;46162;57.568;25.814;2024-03-23T01:28:27;99090.03;;;3.87;100.00
59650;BME280;46162;57.568;25.814;2024-03-23T01:30:54;99086.66;;;3.85;100.00
59650;BME280;46162;57.568;25.814;2024-03-23T01:33:21;99085.31;;;3.81;100.00
59650;BME280;46162;57.568;25.814;2024-03-23T01:35:48;99086.56;;;3.77;100.00
59650;BME280;46162;57.568;25.814;2024-03-23T01:38:15;99080.16;;;3.70;100.00
59650;BME280;46162;57.568;25.814;2024-03-23T01:40:42;99081.97;;;3.69;100.00
59650;BME280;46162;57.568;25.814;2024-03-23T01:43:11;99090.13;;;3.67;100.00
59650;BME280;46162;57.568;25.814;2024-03-23T01:45:38;99095.84;;;3.73;100.00
59650;BME280;46162;57.568;25.814;2024-03-23T01:48:06;99086.19;;;3.72;100.00
59650;BME280;46162;57.568;25.814;2024-03-23T01:50:33;99089.25;;;3.77;100.00
59650;BME280;46162;57.568;25.814;2024-03-23T01:53:02;99086.56;;;3.77;100.00
59650;BME280;46162;57.568;25.814;2024-03-23T01:55:28;99081.94;;;3.79;100.00
59650;BME280;46162;57.568;25.814;2024-03-23T01:57:56;99075.06;;;3.76;100.00
59650;BME280;46162;57.568;25.814;2024-03-23T02:00:25;99074.91;;;3.78;100.00
59650;BME280;46162;57.568;25.814;2024-03-23T02:02:54;99071.69;;;3.74;100.00
59650;BME280;46162;57.568;25.814;2024-03-23T02:05:20;99072.41;;;3.76;100.00
59650;BME280;46162;57.568;25.814;2024-03-23T02:07:48;99068.72;;;3.77;100.00
59650;BME280;46162;57.568;25.814;2024-03-23T02:10:15;99076.88;;;3.76;100.00
59650;BME280;46162;57.568;25.814;2024-03-23T02:12:43;99071.78;;;3.82;100.00
59650;BME280;46162;57.568;25.814;2024-03-23T02:15:09;99064.22;;;3.78;100.00
59650;BME280;46162;57.568;25.814;2024-03-23T02:17:38;99071.25;;;3.79;100.00
59650;BME280;46162;57.568;25.814;2024-03-23T02:20:05;99066.75;;;3.79;100.00
59650;BME280;46162;57.568;25.814;2024-03-23T02:22:36;99063.78;;;3.82;100.00
59650;BME280;46162;57.568;25.814;2024-03-23T02:25:05;99055.50;;;3.76;100.00
59650;BME280;46162;57.568;25.814;2024-03-23T02:27:33;99057.75;;;3.80;100.00
59650;BME280;46162;57.568;25.814;2024-03-23T02:30:02;99050.19;;;3.76;100.00
59650;BME280;46162;57.568;25.814;2024-03-23T02:32:30;99054.38;;;3.78;100.00
59650;BME280;46162;57.568;25.814;2024-03-23T02:34:56;99061.41;;;3.79;100.00
59650;BME280;46162;57.568;25.814;2024-03-23T02:37:24;99062.25;;;3.80;100.00
59650;BME280;46162;57.568;25.814;2024-03-23T02:39:50;99055.25;;;3.79;100.00
59650;BME280;46162;57.568;25.814;2024-03-23T02:42:19;99062.84;;;3.74;100.00
59650;BME280;46162;57.568;25.814;2024-03-23T02:44:46;99066.75;;;3.79;100.00
59650;BME280;46162;57.568;25.814;2024-03-23T02:47:13;99071.25;;;3.79;100.00
59650;BME280;46162;57.568;25.814;2024-03-23T02:49:40;99053.28;;;3.81;100.00
59650;BME280;46162;57.568;25.814;2024-03-23T02:52:07;99061.28;;;3.81;100.00
59650;BME280;46162;57.568;25.814;2024-03-23T02:54:33;99049.34;;;3.75;100.00
59650;BME280;46162;57.568;25.814;2024-03-23T02:57:01;99043.16;;;3.75;100.00
59650;BME280;46162;57.568;25.814;2024-03-23T02:59:29;99037.88;;;3.65;100.00
59650;BME280;46162;57.568;25.814;2024-03-23T03:01:56;99033.28;;;3.57;100.00
59650;BME280;46162;57.568;25.814;2024-03-23T03:04:23;99027.25;;;3.55;100.00
59650;BME280;46162;57.568;25.814;2024-03-23T03:06:50;99023.63;;;3.56;100.00
59650;BME280;46162;57.568;25.814;2024-03-23T03:09:17;99003.97;;;3.48;100.00
59650;BME280;46162;57.568;25.814;2024-03-23T03:11:44;99002.44;;;3.45;100.00
59650;BME280;46162;57.568;25.814;2024-03-23T03:14:11;98998.66;;;3.48;100.00
59650;BME280;46162;57.568;25.814;2024-03-23T03:16:39;98994.13;;;3.48;100.00
59650;BME280;46162;57.568;25.814;2024-03-23T03:19:06;98996.09;;;3.46;100.00
59650;BME280;46162;57.568;25.814;2024-03-23T03:21:33;98988.09;;;3.46;100.00
59650;BME280;46162;57.568;25.814;2024-03-23T03:24:00;98999.09;;;3.43;100.00
59650;BME280;46162;57.568;25.814;2024-03-23T03:26:27;98985.22;;;3.39;100.00
59650;BME280;46162;57.568;25.814;2024-03-23T03:28:54;98985.03;;;3.41;100.00
59650;BME280;46162;57.568;25.814;2024-03-23T03:31:22;98988.72;;;3.40;100.00
59650;BME280;46162;57.568;25.814;2024-03-23T03:33:50;98995.06;;;3.39;100.00
59650;BME280;46162;57.568;25.814;2024-03-23T03:36:17;99006.28;;;3.33;100.00
59650;BME280;46162;57.568;25.814;2024-03-23T03:38:44;99006.00;;;3.36;100.00
59650;BME280;46162;57.568;25.814;2024-03-23T03:41:11;99000.66;;;3.36;100.00
59650;BME280;46162;57.568;25.814;2024-03-23T03:43:38;98999.44;;;3.30;100.00
59650;BME280;46162;57.568;25.814;2024-03-23T03:46:05;99001.56;;;3.27;100.00
59650;BME280;46162;57.568;25.814;2024-03-23T03:48:34;99003.94;;;3.30;100.00
59650;BME280;46162;57.568;25.814;2024-03-23T03:51:03;99001.69;;;3.25;100.00
59650;BME280;46162;57.568;25.814;2024-03-23T03:53:30;98997.19;;;3.26;100.00
59650;BME280;46162;57.568;25.814;2024-03-23T03:56:00;99003.66;;;3.23;100.00
59650;BME280;46162;57.568;25.814;2024-03-23T03:58:28;98996.78;;;3.20;100.00
59650;BME280;46162;57.568;25.814;2024-03-23T04:00:55;99009.28;;;3.20;100.00
59650;BME280;46162;57.568;25.814;2024-03-23T04:03:22;99006.06;;;3.16;100.00
59650;BME280;46162;57.568;25.814;2024-03-23T04:05:53;99006.75;;;3.18;100.00
59650;BME280;46162;57.568;25.814;2024-03-23T04:08:21;99015.06;;;3.15;100.00
59650;BME280;46162;57.568;25.814;2024-03-23T04:10:49;99012.69;;;3.12;100.00
59650;BME280;46162;57.568;25.814;2024-03-23T04:13:15;99011.69;;;3.13;100.00
59650;BME280;46162;57.568;25.814;2024-03-23T04:15:43;99013.41;;;3.14;100.00
59650;BME280;46162;57.568;25.814;2024-03-23T04:18:09;99014.38;;;3.13;100.00
59650;BME280;46162;57.568;25.814;2024-03-23T04:20:37;99006.66;;;3.10;100.00
59650;BME280;46162;57.568;25.814;2024-03-23T04:23:04;99006.78;;;3.09;100.00
59650;BME280;46162;57.568;25.814;2024-03-23T04:25:33;99019.47;;;3.07;100.00
59650;BME280;46162;57.568;25.814;2024-03-23T04:27:59;99023.94;;;3.06;100.00
59650;BME280;46162;57.568;25.814;2024-03-23T04:30:27;99022.97;;;3.07;100.00
59650;BME280;46162;57.568;25.814;2024-03-23T04:32:55;99023.50;;;3.11;100.00
59650;BME280;46162;57.568;25.814;2024-03-23T04:35:24;99020.56;;;3.04;100.00
59650;BME280;46162;57.568;25.814;2024-03-23T04:37:51;99028.84;;;3.01;100.00
59650;BME280;46162;57.568;25.814;2024-03-23T04:40:19;99031.38;;;3.03;100.00
59650;BME280;46162;57.568;25.814;2024-03-23T04:42:48;99029.69;;;3.01;100.00
59650;BME280;46162;57.568;25.814;2024-03-23T04:45:16;99032.50;;;3.00;100.00
59650;BME280;46162;57.568;25.814;2024-03-23T04:47:43;99037.28;;;2.96;100.00
59650;BME280;46162;57.568;25.814;2024-03-23T04:50:11;99027.31;;;2.98;100.00
59650;BME280;46162;57.568;25.814;2024-03-23T04:52:38;99030.81;;;2.99;100.00
59650;BME280;46162;57.568;25.814;2024-03-23T04:55:09;99033.94;;;2.94;100.00
59650;BME280;46162;57.568;25.814;2024-03-23T04:57:38;99027.47;;;2.97;100.00
59650;BME280;46162;57.568;25.814;2024-03-23T05:00:08;99035.59;;;2.95;100.00
59650;BME280;46162;57.568;25.814;2024-03-23T05:02:44;99032.09;;;2.95;100.00
59650;BME280;46162;57.568;25.814;2024-03-23T05:05:11;99026.91;;;2.93;100.00
59650;BME280;46162;57.568;25.814;2024-03-23T05:07:38;99025.94;;;2.94;100.00
59650;BME280;46162;57.568;25.814;2024-03-23T05:10:05;99035.06;;;2.92;100.00
59650;BME280;46162;57.568;25.814;2024-03-23T05:12:36;99032.41;;;2.92;100.00
59650;BME280;46162;57.568;25.814;2024-03-23T05:15:03;99031.41;;;2.93;100.00
59650;BME280;46162;57.568;25.814;2024-03-23T05:17:32;99027.91;;;2.92;100.00
59650;BME280;46162;57.568;25.814;2024-03-23T05:19:59;99035.91;;;2.92;100.00
59650;BME280;46162;57.568;25.814;2024-03-23T05:22:26;99035.19;;;2.90;100.00
59650;BME280;46162;57.568;25.814;2024-03-23T05:24:53;99029.56;;;2.93;100.00
59650;BME280;46162;57.568;25.814;2024-03-23T05:27:21;99031.28;;;2.94;100.00
59650;BME280;46162;57.568;25.814;2024-03-23T05:29:47;99027.91;;;2.92;100.00
59650;BME280;46162;57.568;25.814;2024-03-23T05:32:15;99025.94;;;2.94;100.00
59650;BME280;46162;57.568;25.814;2024-03-23T05:34:44;99019.06;;;2.92;100.00
59650;BME280;46162;57.568;25.814;2024-03-23T05:37:11;99026.91;;;2.93;100.00
59650;BME280;46162;57.568;25.814;2024-03-23T05:39:38;99026.91;;;2.93;100.00
59650;BME280;46162;57.568;25.814;2024-03-23T05:42:06;99028.88;;;2.91;100.00
59650;BME280;46162;57.568;25.814;2024-03-23T05:44:32;99022.56;;;2.92;100.00
59650;BME280;46162;57.568;25.814;2024-03-23T05:47:00;99021.75;;;2.92;100.00
59650;BME280;46162;57.568;25.814;2024-03-23T05:49:26;99026.06;;;2.93;100.00
59650;BME280;46162;57.568;25.814;2024-03-23T05:51:55;99025.25;;;2.92;100.00
59650;BME280;46162;57.568;25.814;2024-03-23T05:54:21;99033.94;;;2.94;100.00
59650;BME280;46162;57.568;25.814;2024-03-23T05:56:49;99031.09;;;2.96;100.00
59650;BME280;46162;57.568;25.814;2024-03-23T05:59:15;99026.34;;;2.99;100.00
59650;BME280;46162;57.568;25.814;2024-03-23T06:01:43;99030.69;;;3.00;100.00
59650;BME280;46162;57.568;25.814;2024-03-23T06:04:09;99031.38;;;3.03;100.00
59650;BME280;46162;57.568;25.814;2024-03-23T06:06:37;99023.50;;;3.01;100.00
59650;BME280;46162;57.568;25.814;2024-03-23T06:09:05;99035.72;;;3.04;100.00
59650;BME280;46162;57.568;25.814;2024-03-23T06:11:33;99032.34;;;3.01;100.00
59650;BME280;46162;57.568;25.814;2024-03-23T06:13:59;99030.56;;;3.02;100.00
59650;BME280;46162;57.568;25.814;2024-03-23T06:16:26;99030.38;;;3.04;100.00
59650;BME280;46162;57.568;25.814;2024-03-23T06:18:54;99024.91;;;3.05;100.00
59650;BME280;46162;57.568;25.814;2024-03-23T06:21:22;99031.38;;;3.03;100.00
59650;BME280;46162;57.568;25.814;2024-03-23T06:23:51;99028.41;;;3.06;100.00
59650;BME280;46162;57.568;25.814;2024-03-23T06:26:21;99029.66;;;3.11;100.00
59650;BME280;46162;57.568;25.814;2024-03-23T06:28:47;99031.34;;;3.12;100.00
59650;BME280;46162;57.568;25.814;2024-03-23T06:31:15;99036.09;;;3.18;100.00
59650;BME280;46162;57.568;25.814;2024-03-23T06:33:41;99040.59;;;3.18;100.00
59650;BME280;46162;57.568;25.814;2024-03-23T06:36:10;99045.94;;;3.18;100.00
59650;BME280;46162;57.568;25.814;2024-03-23T06:38:36;99036.41;;;3.15;100.00
59650;BME280;46162;57.568;25.814;2024-03-23T06:41:05;99048.47;;;3.19;100.00
59650;BME280;46162;57.568;25.814;2024-03-23T06:43:33;99052.09;;;3.18;100.00
59650;BME280;46162;57.568;25.814;2024-03-23T06:46:03;99050.13;;;3.20;100.00
59650;BME280;46162;57.568;25.814;2024-03-23T06:48:30;99053.50;;;3.22;100.00
59650;BME280;46162;57.568;25.814;2024-03-23T06:50:57;99056.88;;;3.25;100.00
59650;BME280;46162;57.568;25.814;2024-03-23T06:53:24;99065.84;;;3.23;100.00
59650;BME280;46162;57.568;25.814;2024-03-23T06:55:52;99052.09;;;3.18;100.00
59650;BME280;46162;57.568;25.814;2024-03-23T06:58:20;99052.94;;;3.19;100.00
59650;BME280;46162;57.568;25.814;2024-03-23T07:00:49;99048.47;;;3.19;100.00
59650;BME280;46162;57.568;25.814;2024-03-23T07:03:16;99056.06;;;3.14;100.00
59650;BME280;46162;57.568;25.814;2024-03-23T07:05:44;99054.06;;;3.16;100.00
59650;BME280;46162;57.568;25.814;2024-03-23T07:08:12;99047.34;;;3.12;100.00
59650;BME280;46162;57.568;25.814;2024-03-23T07:10:44;99055.50;;;3.11;100.00
59650;BME280;46162;57.568;25.814;2024-03-23T07:13:11;99059.69;;;3.13;100.00
59650;BME280;46162;57.568;25.814;2024-03-23T07:15:38;99061.41;;;3.14;100.00
59650;BME280;46162;57.568;25.814;2024-03-23T07:18:06;99063.47;;;3.20;100.00
59650;BME280;46162;57.568;25.814;2024-03-23T07:20:34;99062.50;;;3.21;100.00
59650;BME280;46162;57.568;25.814;2024-03-23T07:23:00;99062.50;;;3.21;100.00
59650;BME280;46162;57.568;25.814;2024-03-23T07:25:27;99061.91;;;3.28;100.00
59650;BME280;46162;57.568;25.814;2024-03-23T07:27:55;99056.72;;;3.26;100.00
59650;BME280;46162;57.568;25.814;2024-03-23T07:30:22;99063.47;;;3.20;100.00
59650;BME280;46162;57.568;25.814;2024-03-23T07:32:49;99059.09;;;3.29;100.00
59650;BME280;46162;57.568;25.814;2024-03-23T07:35:18;99066.50;;;3.35;100.00
59650;BME280;46162;57.568;25.814;2024-03-23T07:37:44;99061.31;;;3.34;100.00
59650;BME280;46162;57.568;25.814;2024-03-23T07:40:13;99069.75;;;3.39;100.00
59650;BME280;46162;57.568;25.814;2024-03-23T07:42:40;99068.88;;;3.38;100.00
59650;BME280;46162;57.568;25.814;2024-03-23T07:45:08;99064.28;;;3.31;100.00
59650;BME280;46162;57.568;25.814;2024-03-23T07:47:35;99063.31;;;3.32;100.00
59650;BME280;46162;57.568;25.814;2024-03-23T07:50:03;99071.75;;;3.27;100.00
59650;BME280;46162;57.568;25.814;2024-03-23T07:52:31;99071.44;;;3.30;100.00
59650;BME280;46162;57.568;25.814;2024-03-23T07:54:59;99072.56;;;3.28;100.00
59650;BME280;46162;57.568;25.814;2024-03-23T07:57:25;99083.66;;;3.33;100.00
59650;BME280;46162;57.568;25.814;2024-03-23T07:59:52;99084.78;;;3.30;100.00
59650;BME280;46162;57.568;25.814;2024-03-23T08:02:19;99072.56;;;3.28;100.00
59650;BME280;46162;57.568;25.814;2024-03-23T08:04:46;99080.69;;;3.36;100.00
59650;BME280;46162;57.568;25.814;2024-03-23T08:07:14;99087.28;;;3.41;100.00
59650;BME280;46162;57.568;25.814;2024-03-23T08:09:42;99081.94;;;3.41;100.00
59650;BME280;46162;57.568;25.814;2024-03-23T08:12:11;99079.72;;;3.37;100.00
59650;BME280;46162;57.568;25.814;2024-03-23T08:14:37;99080.97;;;3.33;100.00
59650;BME280;46162;57.568;25.814;2024-03-23T08:17:05;99081.69;;;3.35;100.00
59650;BME280;46162;57.568;25.814;2024-03-23T08:19:31;99079.59;;;3.29;100.00
59650;BME280;46162;57.568;25.814;2024-03-23T08:21:58;99075.09;;;3.39;100.00
59650;BME280;46162;57.568;25.814;2024-03-23T08:24:25;99086.53;;;3.59;100.00
59650;BME280;46162;57.568;25.814;2024-03-23T08:26:56;99077.56;;;3.50;100.00
59650;BME280;46162;57.568;25.814;2024-03-23T08:29:22;99079.53;;;3.48;100.00
59650;BME280;46162;57.568;25.814;2024-03-23T08:31:50;99080.63;;;3.55;100.00
59650;BME280;46162;57.568;25.814;2024-03-23T08:34:16;99069.69;;;3.49;100.00
59650;BME280;46162;57.568;25.814;2024-03-23T08:36:44;99069.22;;;3.63;100.00
59650;BME280;46162;57.568;25.814;2024-03-23T08:39:10;99074.81;;;3.70;100.00
59650;BME280;46162;57.568;25.814;2024-03-23T08:41:38;99070.31;;;3.70;100.00
59650;BME280;46162;57.568;25.814;2024-03-23T08:44:06;99082.72;;;3.61;100.00
59650;BME280;46162;57.568;25.814;2024-03-23T08:46:33;99076.03;;;3.75;100.00
59650;BME280;46162;57.568;25.814;2024-03-23T08:49:00;99078.09;;;3.91;100.00
59650;BME280;46162;57.568;25.814;2024-03-23T08:51:27;99075.75;;;4.06;100.00
59650;BME280;46162;57.568;25.814;2024-03-23T08:53:55;99070.25;;;4.07;100.00
59650;BME280;46162;57.568;25.814;2024-03-23T08:56:21;99072.41;;;4.22;100.00
59650;BME280;46162;57.568;25.814;2024-03-23T08:58:49;99072.03;;;4.17;100.00
59650;BME280;46162;57.568;25.814;2024-03-23T09:01:16;99079.91;;;4.18;100.00
59650;BME280;46162;57.568;25.814;2024-03-23T09:03:44;99073.78;;;4.26;100.00
59650;BME280;46162;57.568;25.814;2024-03-23T09:06:12;99086.25;;;4.07;100.00
59650;BME280;46162;57.568;25.814;2024-03-23T09:08:40;99073.03;;;4.16;100.00
59650;BME280;46162;57.568;25.814;2024-03-23T09:11:08;99089.50;;;4.11;100.00
59650;BME280;46162;57.568;25.814;2024-03-23T09:13:37;99090.72;;;4.17;100.00
59650;BME280;46162;57.568;25.814;2024-03-23T09:16:04;99085.44;;;4.25;100.00
59650;BME280;46162;57.568;25.814;2024-03-23T09:18:35;99100.50;;;4.26;100.00
59650;BME280;46162;57.568;25.814;2024-03-23T09:21:02;99086.16;;;4.27;100.00
59650;BME280;46162;57.568;25.814;2024-03-23T09:23:29;99094.47;;;4.24;100.00
59650;BME280;46162;57.568;25.814;2024-03-23T09:25:56;99086.97;;;4.27;100.00
59650;BME280;46162;57.568;25.814;2024-03-23T09:28:25;99096.69;;;4.11;100.00
59650;BME280;46162;57.568;25.814;2024-03-23T09:30:51;99099.94;;;4.22;100.00
59650;BME280;46162;57.568;25.814;2024-03-23T09:33:19;99100.72;;;4.32;100.00
59650;BME280;46162;57.568;25.814;2024-03-23T09:35:47;99103.81;;;4.56;100.00
59650;BME280;46162;57.568;25.814;2024-03-23T09:38:14;99117.88;;;4.58;100.00
59650;BME280;46162;57.568;25.814;2024-03-23T09:40:41;99129.22;;;4.42;100.00
59650;BME280;46162;57.568;25.814;2024-03-23T09:43:09;99125.63;;;4.33;100.00
59650;BME280;46162;57.568;25.814;2024-03-23T09:45:38;99124.88;;;4.41;100.00
59650;BME280;46162;57.568;25.814;2024-03-23T09:48:08;99137.78;;;4.45;100.00
59650;BME280;46162;57.568;25.814;2024-03-23T09:50:36;99142.44;;;4.43;100.00
59650;BME280;46162;57.568;25.814;2024-03-23T09:53:06;99145.22;;;4.24;100.00
59650;BME280;46162;57.568;25.814;2024-03-23T09:55:33;99147.19;;;4.22;100.00
59650;BME280;46162;57.568;25.814;2024-03-23T09:58:01;99138.94;;;4.15;100.00
59650;BME280;46162;57.568;25.814;2024-03-23T10:00:28;99144.78;;;4.28;100.00
59650;BME280;46162;57.568;25.814;2024-03-23T10:02:55;99143.84;;;4.20;100.00
59650;BME280;46162;57.568;25.814;2024-03-23T10:05:24;99143.88;;;4.10;100.00
59650;BME280;46162;57.568;25.814;2024-03-23T10:07:53;99146.41;;;4.12;100.00
59650;BME280;46162;57.568;25.814;2024-03-23T10:10:21;99149.75;;;4.23;100.00
59650;BME280;46162;57.568;25.814;2024-03-23T10:12:49;99154.81;;;4.17;100.00
59650;BME280;46162;57.568;25.814;2024-03-23T10:15:21;99144.22;;;3.97;100.00
59650;BME280;46162;57.568;25.814;2024-03-23T10:17:49;99155.22;;;3.94;100.00
59650;BME280;46162;57.568;25.814;2024-03-23T10:20:19;99154.47;;;4.02;100.00
59650;BME280;46162;57.568;25.814;2024-03-23T10:22:48;99152.09;;;3.99;100.00
59650;BME280;46162;57.568;25.814;2024-03-23T10:25:18;99153.03;;;4.07;100.00
59650;BME280;46162;57.568;25.814;2024-03-23T10:27:58;99152.94;;;3.99;100.00
59650;BME280;46162;57.568;25.814;2024-03-23T10:30:26;99153.63;;;4.01;100.00
59650;BME280;46162;57.568;25.814;2024-03-23T10:33:06;99157.88;;;4.22;100.00
59650;BME280;46162;57.568;25.814;2024-03-23T10:35:34;99158.31;;;4.45;100.00
59650;BME280;46162;57.568;25.814;2024-03-23T10:38:02;99167.00;;;4.29;100.00
59650;BME280;46162;57.568;25.814;2024-03-23T10:40:31;99163.72;;;4.35;100.00
59650;BME280;46162;57.568;25.814;2024-03-23T10:43:03;99167.69;;;4.31;100.00
59650;BME280;46162;57.568;25.814;2024-03-23T10:45:31;99174.34;;;4.45;100.00
59650;BME280;46162;57.568;25.814;2024-03-23T10:47:57;99170.66;;;4.28;100.00
59650;BME280;46162;57.568;25.814;2024-03-23T10:50:25;99164.41;;;4.37;100.00
59650;BME280;46162;57.568;25.814;2024-03-23T10:52:53;99164.84;;;4.32;100.00
59650;BME280;46162;57.568;25.814;2024-03-23T10:55:22;99162.56;;;4.65;100.00
59650;BME280;46162;57.568;25.814;2024-03-23T10:57:52;99160.72;;;5.02;100.00
59650;BME280;46162;57.568;25.814;2024-03-23T11:00:22;99156.81;;;5.14;100.00
59650;BME280;46162;57.568;25.814;2024-03-23T11:02:49;99169.22;;;5.15;100.00
59650;BME280;46162;57.568;25.814;2024-03-23T11:05:29;99170.72;;;4.64;100.00
59650;BME280;46162;57.568;25.814;2024-03-23T11:07:56;99171.78;;;4.53;100.00
59650;BME280;46162;57.568;25.814;2024-03-23T11:10:27;99166.25;;;4.55;100.00
59650;BME280;46162;57.568;25.814;2024-03-23T11:12:56;99169.88;;;4.45;100.00
59650;BME280;46162;57.568;25.814;2024-03-23T11:15:25;99160.34;;;4.79;100.00
59650;BME280;46162;57.568;25.814;2024-03-23T11:18:05;99156.59;;;4.89;100.00
59650;BME280;46162;57.568;25.814;2024-03-23T11:20:34;99173.25;;;5.01;100.00
59650;BME280;46162;57.568;25.814;2024-03-23T11:23:02;99173.78;;;4.87;100.00
59650;BME280;46162;57.568;25.814;2024-03-23T11:25:29;99170.19;;;4.96;100.00
59650;BME280;46162;57.568;25.814;2024-03-23T11:27:57;99179.81;;;4.89;100.00
59650;BME280;46162;57.568;25.814;2024-03-23T11:30:27;99174.59;;;4.69;100.00
59650;BME280;46162;57.568;25.814;2024-03-23T11:32:56;99172.81;;;4.70;100.00
59650;BME280;46162;57.568;25.814;2024-03-23T11:35:27;99171.13;;;5.05;100.00
59650;BME280;46162;57.568;25.814;2024-03-23T11:38:08;99176.69;;;4.93;100.00
59650;BME280;46162;57.568;25.814;2024-03-23T11:40:37;99189.22;;;4.93;100.00
59650;BME280;46162;57.568;25.814;2024-03-23T11:43:04;99179.66;;;5.26;100.00
59650;BME280;46162;57.568;25.814;2024-03-23T11:45:38;99177.66;;;5.28;100.00
59650;BME280;46162;57.568;25.814;2024-03-23T11:48:07;99190.19;;;5.46;100.00
59650;BME280;46162;57.568;25.814;2024-03-23T11:50:37;99185.75;;;5.36;100.00
59650;BME280;46162;57.568;25.814;2024-03-23T11:53:07;99195.59;;;5.10;100.00
59650;BME280;46162;57.568;25.814;2024-03-23T11:55:48;99190.22;;;5.10;100.00
59650;BME280;46162;57.568;25.814;2024-03-23T11:58:16;99184.16;;;5.26;100.00
59650;BME280;46162;57.568;25.814;2024-03-23T12:00:51;99189.97;;;5.21;100.00
59650;BME280;46162;57.568;25.814;2024-03-23T12:03:18;99194.50;;;5.03;100.00
59650;BME280;46162;57.568;25.814;2024-03-23T12:05:49;99192.81;;;5.02;100.00
59650;BME280;46162;57.568;25.814;2024-03-23T12:08:21;99191.22;;;5.27;100.00
59650;BME280;46162;57.568;25.814;2024-03-23T12:10:51;99197.41;;;5.27;100.00
59650;BME280;46162;57.568;25.814;2024-03-23T12:13:21;99195.03;;;5.24;100.00
59650;BME280;46162;57.568;25.814;2024-03-23T12:15:51;99204.25;;;5.48;100.00
59650;BME280;46162;57.568;25.814;2024-03-23T12:18:17;99201.63;;;5.56;100.00
59650;BME280;46162;57.568;25.814;2024-03-23T12:20:50;99198.28;;;5.54;100.00
59650;BME280;46162;57.568;25.814;2024-03-23T12:23:17;99190.81;;;5.66;100.00
59650;BME280;46162;57.568;25.814;2024-03-23T12:25:44;99200.75;;;5.73;100.00
59650;BME280;46162;57.568;25.814;2024-03-23T12:28:11;99188.78;;;5.86;100.00
59650;BME280;46162;57.568;25.814;2024-03-23T12:30:39;99183.31;;;5.69;100.00
59650;BME280;46162;57.568;25.814;2024-03-23T12:33:08;99186.28;;;5.66;100.00
59650;BME280;46162;57.568;25.814;2024-03-23T12:35:35;99176.97;;;5.70;100.00
59650;BME280;46162;57.568;25.814;2024-03-23T12:38:02;99186.47;;;5.65;100.00
59650;BME280;46162;57.568;25.814;2024-03-23T12:40:29;99189.03;;;5.48;100.00
59650;BME280;46162;57.568;25.814;2024-03-23T12:42:56;99185.16;;;5.43;100.00
59650;BME280;46162;57.568;25.814;2024-03-23T12:45:23;99191.66;;;5.40;100.00
59650;BME280;46162;57.568;25.814;2024-03-23T12:47:50;99189.44;;;5.35;100.00
59650;BME280;46162;57.568;25.814;2024-03-23T12:50:21;99186.81;;;5.44;100.00
59650;BME280;46162;57.568;25.814;2024-03-23T12:52:48;99193.56;;;5.30;100.00
59650;BME280;46162;57.568;25.814;2024-03-23T12:55:16;99188.06;;;5.13;100.00
59650;BME280;46162;57.568;25.814;2024-03-23T12:57:42;99189.28;;;5.19;100.00
59650;BME280;46162;57.568;25.814;2024-03-23T13:00:10;99193.72;;;5.28;100.00
59650;BME280;46162;57.568;25.814;2024-03-23T13:02:37;99186.47;;;5.21;100.00
59650;BME280;46162;57.568;25.814;2024-03-23T13:05:06;99191.44;;;4.98;100.00
59650;BME280;46162;57.568;25.814;2024-03-23T13:07:36;99182.75;;;4.95;100.00
59650;BME280;46162;57.568;25.814;2024-03-23T13:10:05;99178.78;;;5.00;100.00
59650;BME280;46162;57.568;25.814;2024-03-23T13:12:32;99179.69;;;4.90;100.00
59650;BME280;46162;57.568;25.814;2024-03-23T13:15:00;99178.28;;;4.86;100.00
59650;BME280;46162;57.568;25.814;2024-03-23T13:17:26;99190.38;;;4.90;100.00
59650;BME280;46162;57.568;25.814;2024-03-23T13:19:54;99186.69;;;4.91;100.00
59650;BME280;46162;57.568;25.814;2024-03-23T13:22:21;99180.06;;;4.95;100.00
59650;BME280;46162;57.568;25.814;2024-03-23T13:24:51;99188.09;;;4.95;100.00
59650;BME280;46162;57.568;25.814;2024-03-23T13:27:17;99183.94;;;4.83;100.00
59650;BME280;46162;57.568;25.814;2024-03-23T13:29:45;99181.28;;;4.83;100.00
59650;BME280;46162;57.568;25.814;2024-03-23T13:32:12;99181.41;;;4.82;100.00
59650;BME280;46162;57.568;25.814;2024-03-23T13:34:40;99186.16;;;5.06;100.00
59650;BME280;46162;57.568;25.814;2024-03-23T13:37:07;99187.78;;;4.99;100.00
59650;BME280;46162;57.568;25.814;2024-03-23T13:39:35;99184.72;;;4.93;100.00
59650;BME280;46162;57.568;25.814;2024-03-23T13:42:04;99171.97;;;4.87;100.00
59650;BME280;46162;57.568;25.814;2024-03-23T13:44:32;99179.00;;;4.88;100.00
59650;BME280;46162;57.568;25.814;2024-03-23T13:46:58;99163.56;;;4.82;100.00